logo



Minimumtemperatur heute 8.8     Maximumtemperatur heute 26.0
Datum Zeit
MEZ
Lufttemperatur
C
Windrichtung
Grad
Wind Mittel
Km/h
Wind Min
Km/h
Wind Max
Km/h
rel. Feuchte
%
2016-06-28 19:20:00 21.8 200 2.0 4.0 10.4 52
2016-06-28 19:15:00 21.6 175 1.5 1.9 9.5 55
2016-06-28 19:10:00 22.5 152 1.5 3.6 9.5 55
2016-06-28 19:05:00 22.7 172 2.2 4.3 13.4 50
2016-06-28 19:00:00 22.9 168 1.7 2.9 10.9 48
2016-06-28 18:55:00 23.2 171 2.3 4.7 13.5 47
2016-06-28 18:50:00 23.5 170 2.1 4.0 11.3 47
2016-06-28 18:45:00 23.8 160 1.6 3.1 9.5 47
2016-06-28 18:40:00 23.9 141 2.2 3.5 13.3 45
2016-06-28 18:35:00 23.9 145 2.0 2.7 12.9 47
2016-06-28 18:30:00 24.2 0 0.0 0.0 0.0 46
2016-06-28 18:25:00 24.4 167 1.9 3.6 10.9 42
2016-06-28 18:20:00 24.5 140 2.1 3.5 14.2 42
2016-06-28 18:15:00 24.5 158 2.3 3.1 12.5 41
2016-06-28 18:10:00 24.6 143 2.2 3.9 14.8 41
2016-06-28 18:05:00 24.6 144 2.6 5.4 14.8 41
2016-06-28 18:00:00 24.7 133 1.7 1.5 13.0 42
2016-06-28 17:55:00 24.8 165 2.1 4.5 10.9 43
2016-06-28 17:50:00 24.7 126 2.3 3.8 13.8 42
2016-06-28 17:45:00 24.8 145 2.2 4.0 12.5 44
2016-06-28 17:40:00 24.8 126 2.2 4.1 12.2 44
2016-06-28 17:35:00 24.9 103 2.8 4.4 16.1 42
2016-06-28 17:30:00 25.0 94 2.6 4.4 16.1 43
2016-06-28 17:25:00 25.0 121 2.4 4.9 15.9 44
2016-06-28 17:20:00 24.9 72 3.4 2.5 20.2 44
2016-06-28 17:15:00 25.0 97 3.5 8.0 19.9 44
2016-06-28 17:10:00 25.2 70 2.8 6.8 14.4 43
2016-06-28 17:05:00 25.3 108 2.6 2.8 18.4 43
2016-06-28 17:00:00 25.4 103 2.9 6.5 16.1 42
2016-06-28 16:55:00 25.4 109 2.6 4.0 16.1 44
2016-06-28 16:50:00 25.5 110 2.4 3.3 15.6 41
2016-06-28 16:45:00 25.5 98 2.7 5.5 16.0 43
2016-06-28 16:40:00 25.5 102 3.2 7.1 17.2 40
2016-06-28 16:35:00 25.5 98 3.1 7.6 14.3 39
2016-06-28 16:30:00 25.6 93 3.0 6.7 15.8 38
2016-06-28 16:25:00 25.6 102 3.3 8.3 14.5 36
2016-06-28 16:20:00 25.8 78 2.6 5.5 13.9 40
2016-06-28 16:15:00 25.8 86 2.5 4.5 12.9 42
2016-06-28 16:10:00 25.7 101 2.4 1.7 14.8 39
2016-06-28 16:05:00 25.6 99 2.3 4.1 14.0 39
2016-06-28 16:00:00 25.7 91 2.9 3.6 16.6 42
2016-06-28 15:55:00 25.7 116 2.9 5.9 13.7 40
2016-06-28 15:50:00 25.8 71 3.2 7.2 16.8 41
2016-06-28 15:45:00 25.7 98 2.9 5.3 15.9 41
2016-06-28 15:40:00 25.9 79 2.1 2.7 15.0 40
2016-06-28 15:35:00 25.7 57 2.5 4.0 13.5 38
2016-06-28 15:30:00 25.7 88 2.8 5.5 17.3 38
2016-06-28 15:25:00 25.8 88 2.2 3.8 13.0 40
2016-06-28 15:20:00 25.7 110 2.7 5.3 15.9 40
2016-06-28 15:15:00 25.7 100 3.9 7.5 19.2 41
2016-06-28 15:10:00 25.7 67 2.8 6.5 16.7 40
2016-06-28 15:05:00 25.6 43 2.5 5.6 12.9 40
2016-06-28 15:00:00 25.8 102 1.8 2.7 12.7 37
2016-06-28 14:55:00 25.9 117 0.8 0.3 6.5 35
2016-06-28 14:50:00 25.7 347 2.0 1.3 14.1 34
2016-06-28 14:45:00 26.0 92 2.0 4.1 14.4 40
2016-06-28 14:40:00 25.8 57 2.4 6.4 12.9 41
2016-06-28 14:35:00 26.0 117 1.1 0.2 7.1 39
2016-06-28 14:30:00 25.9 230 0.8 0.7 6.2 37
2016-06-28 14:25:00 25.6 98 1.1 1.6 9.3 38
2016-06-28 14:20:00 25.4 171 2.3 3.9 13.6 36
2016-06-28 14:15:00 25.5 0 0.0 0.0 0.0 43
2016-06-28 14:10:00 25.3 108 2.6 3.3 13.8 39
2016-06-28 14:05:00 25.3 90 2.4 4.6 12.9 39
2016-06-28 14:00:00 25.3 89 3.4 2.6 17.4 39
2016-06-28 13:55:00 25.4 155 1.8 2.1 11.9 41
2016-06-28 13:50:00 25.1 120 1.8 1.8 12.3 41
2016-06-28 13:45:00 25.1 99 2.7 3.3 14.4 37
2016-06-28 13:40:00 25.3 73 1.4 2.3 11.7 41
2016-06-28 13:35:00 25.1 113 1.9 2.5 12.2 37
2016-06-28 13:30:00 25.2 71 1.2 0.5 8.1 42
2016-06-28 13:25:00 24.8 90 2.7 4.8 14.5 41
2016-06-28 13:20:00 25.0 108 2.2 1.2 13.3 40
2016-06-28 13:15:00 25.0 92 1.0 1.1 6.9 42
2016-06-28 13:10:00 24.8 88 2.4 6.1 12.2 39
2016-06-28 13:05:00 25.0 78 1.2 0.2 9.4 40
2016-06-28 13:00:00 24.7 344 0.8 0.0 5.7 40
2016-06-28 12:55:00 24.7 81 1.9 0.7 11.2 38
2016-06-28 12:50:00 24.8 16 1.3 2.5 6.5 42
2016-06-28 12:45:00 24.6 315 0.9 0.4 5.0 46
2016-06-28 12:40:00 24.5 168 1.0 0.8 6.6 39
2016-06-28 12:35:00 24.5 88 2.2 4.8 12.4 39
2016-06-28 12:30:00 24.5 87 2.2 0.3 13.1 42
2016-06-28 12:25:00 24.4 43 0.8 1.0 6.8 41
2016-06-28 12:20:00 24.3 35 1.4 0.7 8.4 38
2016-06-28 12:15:00 24.5 107 1.7 3.1 10.9 41
2016-06-28 12:10:00 24.5 65 1.5 3.5 9.1 44
2016-06-28 12:05:00 24.3 343 1.2 0.4 8.6 41
2016-06-28 12:00:00 24.5 93 1.2 1.0 8.6 40
2016-06-28 11:55:00 24.5 33 1.0 0.5 5.9 46
2016-06-28 11:50:00 24.2 297 1.1 0.2 7.1 40
2016-06-28 11:45:00 24.1 208 0.7 0.2 5.4 39
2016-06-28 11:40:00 24.0 150 0.6 0.0 5.2 38
2016-06-28 11:35:00 24.3 20 0.7 0.5 5.7 43
2016-06-28 11:30:00 23.7 351 0.6 0.4 6.1 47
2016-06-28 11:25:00 23.5 260 1.0 0.8 7.1 47
2016-06-28 11:20:00 23.1 345 1.5 1.6 10.9 45
2016-06-28 11:15:00 23.1 333 1.2 1.6 9.6 48
2016-06-28 11:10:00 22.9 308 1.3 1.1 8.8 50
2016-06-28 11:05:00 22.8 261 1.6 1.2 9.2 48
2016-06-28 11:00:00 22.7 269 1.8 2.6 10.2 45
2016-06-28 10:55:00 22.6 299 2.2 2.5 11.4 44
2016-06-28 10:50:00 22.4 294 2.0 3.1 10.6 48
2016-06-28 10:45:00 22.4 282 1.6 3.0 9.9 50
2016-06-28 10:40:00 22.1 271 2.3 4.4 13.2 48
2016-06-28 10:35:00 22.1 272 1.9 4.0 9.2 47
2016-06-28 10:30:00 21.8 278 1.5 1.6 7.6 48
2016-06-28 10:25:00 21.6 307 1.3 3.4 6.8 49
2016-06-28 10:20:00 21.4 317 1.2 0.9 8.7 53
2016-06-28 10:15:00 21.1 236 1.4 1.7 8.1 54
2016-06-28 10:10:00 21.0 258 1.5 1.7 10.1 53
2016-06-28 10:05:00 20.8 308 1.8 1.9 10.0 55
2016-06-28 10:00:00 20.6 251 1.3 2.4 7.6 60
2016-06-28 09:55:00 20.3 268 1.5 1.8 8.4 61
2016-06-28 09:50:00 20.1 305 1.2 1.8 8.6 60
2016-06-28 09:45:00 19.8 270 1.8 2.7 8.8 61
2016-06-28 09:40:00 19.5 298 1.4 1.3 8.4 64
2016-06-28 09:35:00 19.4 288 1.9 1.0 11.4 66
2016-06-28 09:30:00 19.2 212 1.4 1.6 9.2 65
2016-06-28 09:25:00 19.0 273 1.8 4.2 8.7 67
2016-06-28 09:20:00 19.0 258 1.7 3.1 8.6 67
2016-06-28 09:15:00 18.6 278 1.9 3.7 10.4 66
2016-06-28 09:10:00 18.3 281 2.3 5.3 11.8 67
2016-06-28 09:05:00 18.2 282 2.8 6.4 13.1 68
2016-06-28 09:00:00 18.1 284 2.8 6.7 13.8 72
2016-06-28 08:55:00 17.9 278 3.1 7.4 15.1 70
2016-06-28 08:50:00 17.8 275 3.2 6.9 15.0 68
2016-06-28 08:45:00 17.5 261 2.8 6.8 12.6 72
2016-06-28 08:40:00 17.3 286 2.7 6.1 15.7 70
2016-06-28 08:35:00 17.0 255 2.7 6.9 12.3 73
2016-06-28 08:30:00 16.9 274 2.6 4.9 12.6 74
2016-06-28 08:25:00 16.5 256 3.3 7.5 14.5 74
2016-06-28 08:20:00 16.4 256 3.2 7.7 15.9 78
2016-06-28 08:15:00 16.0 278 4.1 11.2 19.4 75
2016-06-28 08:10:00 15.9 291 4.2 10.6 19.2 75
2016-06-28 08:05:00 16.0 275 3.7 8.8 17.7 77
2016-06-28 08:00:00 15.8 260 3.3 7.7 17.8 76
2016-06-28 07:55:00 15.6 262 3.2 4.4 16.3 80
2016-06-28 07:50:00 15.4 266 1.9 4.5 11.2 85
2016-06-28 07:45:00 14.9 270 3.0 7.7 13.1 83
2016-06-28 07:40:00 14.6 251 3.0 5.7 14.7 84
2016-06-28 07:35:00 14.5 271 3.3 8.6 15.4 85
2016-06-28 07:30:00 14.3 260 3.0 7.1 14.0 88
2016-06-28 07:25:00 13.8 269 3.1 8.5 14.5 88
www.zamg.ac.at

klagenfurt@zamg.ac.at